Time;durP1;ratioP1;P1;durP2;ratioP2;P2;SDS_P1;SDS_P2;PMS_P1;PMS_P2;Temp;Humidity;BMP_temperature;BMP_pressure;BME280_temperature;BME280_humidity;BME280_pressure;Samples;Min_cycle;Max_cycle;Signal;HPM_P1;HPM_P2
2023/08/21 00:01:21;;;;;;;8.73;7.35;;;;;;;29.09;47.57;101712.72;21084007;28;20073;-57
2023/08/21 00:11:22;;;;;;;8.38;7.50;;;;;;;29.09;47.61;101698.63;21082004;28;20437;-57
2023/08/21 00:21:24;;;;;;;9.25;7.60;;;;;;;29.08;47.65;101700.63;21008929;28;20047;-57
2023/08/21 00:31:25;;;;;;;9.90;7.90;;;;;;;29.06;47.75;101719.84;20998032;28;20041;-58
2023/08/21 00:41:26;;;;;;;7.63;6.82;;;;;;;29.09;47.54;101724.00;20997607;28;20040;-57
2023/08/21 00:51:28;;;;;;;8.13;7.10;;;;;;;29.09;47.40;101740.91;20995015;28;20097;-58
2023/08/21 01:01:30;;;;;;;8.88;7.93;;;;;;;29.09;47.65;101741.75;20994542;28;20053;-58
2023/08/21 01:11:48;;;;;;;8.75;7.70;;;;;;;29.06;47.98;101748.03;20994299;28;20044;-58
2023/08/21 01:21:50;;;;;;;8.82;7.75;;;;;;;29.10;47.91;101753.88;20995775;28;20044;-55
2023/08/21 01:32:20;;;;;;;8.63;7.72;;;;;;;29.03;47.87;101767.53;20993543;28;20032;-59
2023/08/21 01:42:22;;;;;;;8.18;7.28;;;;;;;29.04;46.44;101772.03;20989279;28;20090;-59
2023/08/21 01:52:23;;;;;;;9.07;7.50;;;;;;;28.24;46.18;101777.03;21043010;28;20024;-56
2023/08/21 02:02:25;;;;;;;17.05;8.27;;;;;;;27.82;46.16;101787.38;21063485;28;20062;-58
2023/08/21 02:12:26;;;;;;;22.10;10.18;;;;;;;27.55;47.17;101781.63;21068318;28;20032;-57
2023/08/21 02:22:27;;;;;;;23.13;10.57;;;;;;;27.03;47.24;101741.34;21057487;28;20113;-59
2023/08/21 02:32:29;;;;;;;19.98;9.52;;;;;;;27.13;46.46;101811.50;21068093;28;20094;-59
2023/08/21 02:42:30;;;;;;;20.65;10.30;;;;;;;26.94;46.15;101799.34;21070371;28;20044;-58
2023/08/21 02:52:33;;;;;;;17.70;10.02;;;;;;;26.80;45.49;101796.44;21080752;28;20368;-58
2023/08/21 03:02:34;;;;;;;15.57;9.75;;;;;;;26.61;45.45;101790.78;21082744;28;20376;-57
2023/08/21 03:12:36;;;;;;;17.60;9.50;;;;;;;26.53;44.97;101777.44;21070792;28;20073;-58
2023/08/21 03:22:37;;;;;;;17.00;8.98;;;;;;;26.46;45.83;101793.78;21047992;28;20040;-57
2023/08/21 03:32:38;;;;;;;14.65;9.45;;;;;;;26.39;45.99;101794.13;21078617;28;20028;-59
2023/08/21 03:42:40;;;;;;;15.80;9.48;;;;;;;26.28;46.16;101796.19;21081225;28;20106;-58
2023/08/21 03:52:44;;;;;;;13.68;8.80;;;;;;;26.26;46.39;101789.22;21082232;28;20102;-57
2023/08/21 04:02:45;;;;;;;18.52;8.50;;;;;;;26.15;46.36;101794.09;21082665;28;20416;-58
2023/08/21 04:12:47;;;;;;;20.67;12.48;;;;;;;26.01;46.38;101793.13;21083019;28;20056;-59
2023/08/21 04:22:48;;;;;;;65.07;38.60;;;;;;;25.99;46.58;101789.78;21075753;28;20548;-58
2023/08/21 04:32:53;;;;;;;81.85;53.55;;;;;;;25.94;46.53;101790.66;21075338;28;20399;-59
2023/08/21 04:42:55;;;;;;;83.70;56.80;;;;;;;25.88;46.57;101785.38;21076045;28;20395;-57
2023/08/21 04:52:56;;;;;;;83.38;54.65;;;;;;;25.80;46.61;101786.88;21071500;28;20552;-57
2023/08/21 05:02:58;;;;;;;78.07;49.83;;;;;;;25.76;46.77;101786.63;21056994;28;20171;-57
2023/08/21 05:12:59;;;;;;;67.43;46.55;;;;;;;25.51;46.54;101754.00;21071576;28;20051;-57
2023/08/21 05:23:00;;;;;;;58.58;42.95;;;;;;;25.59;46.79;101769.34;21069138;28;20398;-58
2023/08/21 05:33:03;;;;;;;53.50;39.35;;;;;;;25.59;46.76;101766.53;21070940;28;20040;-59
2023/08/21 05:43:04;;;;;;;48.78;35.30;;;;;;;25.53;46.91;101756.53;21069871;28;20381;-57
2023/08/21 05:53:06;;;;;;;49.10;34.03;;;;;;;25.50;47.09;101751.50;21040470;28;20562;-57
2023/08/21 06:03:07;;;;;;;43.67;30.85;;;;;;;25.45;46.95;101743.97;21065358;28;20039;-59
2023/08/21 06:13:09;;;;;;;42.53;29.33;;;;;;;25.42;47.05;101746.50;21085067;28;20098;-59
2023/08/21 06:23:10;;;;;;;35.28;27.38;;;;;;;25.21;46.92;101718.66;21084564;28;20051;-58
2023/08/21 06:33:12;;;;;;;34.67;26.17;;;;;;;25.35;47.57;101744.06;21084584;28;20448;-57
2023/08/21 06:43:13;;;;;;;30.98;22.73;;;;;;;25.39;48.10;101730.28;21084561;28;20094;-58
2023/08/21 06:53:15;;;;;;;27.77;22.73;;;;;;;25.37;48.21;101726.94;21081660;28;20125;-58
2023/08/21 07:03:16;;;;;;;28.38;21.45;;;;;;;25.37;48.07;101726.94;21079938;28;20047;-58
2023/08/21 07:13:17;;;;;;;26.33;20.83;;;;;;;25.26;48.93;101704.63;21080750;28;20503;-59
2023/08/21 07:23:19;;;;;;;23.98;19.63;;;;;;;25.26;48.37;101715.81;21077522;28;20040;-59
2023/08/21 07:33:20;;;;;;;23.55;18.52;;;;;;;25.26;48.52;101714.97;21079177;28;20048;-56
2023/08/21 07:43:22;;;;;;;23.13;18.20;;;;;;;25.25;48.79;101714.16;21078245;28;20036;-58
2023/08/21 07:53:24;;;;;;;19.77;16.92;;;;;;;25.18;48.90;101712.78;21057955;28;20036;-57
2023/08/21 08:03:25;;;;;;;21.23;16.85;;;;;;;25.17;48.60;101720.38;21071081;28;20101;-58
2023/08/21 08:13:26;;;;;;;18.48;14.93;;;;;;;25.14;48.72;101718.13;21071206;28;20044;-58
2023/08/21 08:23:28;;;;;;;18.77;15.55;;;;;;;25.13;49.00;101715.63;21070506;28;20085;-58
2023/08/21 08:33:29;;;;;;;18.63;15.05;;;;;;;25.07;48.79;101712.00;21067850;28;20430;-57
2023/08/21 08:43:31;;;;;;;17.67;14.68;;;;;;;25.00;48.73;101711.50;21071228;28;20035;-58
2023/08/21 08:53:33;;;;;;;16.33;13.93;;;;;;;24.95;48.80;101703.97;21069527;28;20416;-58
2023/08/21 09:03:35;;;;;;;17.10;13.27;;;;;;;24.94;48.72;101704.25;20983841;28;2472357;-58
2023/08/21 09:13:37;;;;;;;13.82;12.32;;;;;;;24.99;49.09;101721.03;21070851;28;20109;-57
2023/08/21 09:23:38;;;;;;;15.38;12.88;;;;;;;24.89;48.62;101710.72;21037104;28;20048;-56
2023/08/21 09:33:40;;;;;;;14.60;12.73;;;;;;;24.79;48.83;101696.81;21072894;28;20090;-57
2023/08/21 09:43:42;;;;;;;14.68;11.70;;;;;;;24.89;49.25;101730.31;21067730;28;20105;-59
2023/08/21 09:53:45;;;;;;;13.93;11.98;;;;;;;24.76;49.04;101723.41;21049128;28;20555;-57
2023/08/21 10:03:48;;;;;;;12.48;9.82;;;;;;;24.81;48.78;101761.72;21065175;28;20329;-57
2023/08/21 10:13:53;;;;;;;13.00;10.98;;;;;;;24.74;49.23;101748.06;21066961;28;20041;-58
2023/08/21 10:23:56;;;;;;;13.05;11.02;;;;;;;24.76;49.17;101765.38;21069363;28;20140;-58
2023/08/21 10:33:59;;;;;;;12.68;10.93;;;;;;;24.70;48.81;101760.94;21067524;28;20093;-58
2023/08/21 10:44:02;;;;;;;12.02;10.13;;;;;;;24.65;48.81;101755.38;21067404;28;20044;-58
2023/08/21 10:54:13;;;;;;;11.50;10.20;;;;;;;24.66;49.08;101773.00;21072783;28;20044;-58
2023/08/21 11:04:15;;;;;;;12.07;9.65;;;;;;;24.64;48.94;101770.47;21080030;28;20044;-59
2023/08/21 11:14:16;;;;;;;11.95;10.02;;;;;;;24.56;49.18;101757.94;21082877;28;20066;-60
2023/08/21 11:24:18;;;;;;;10.48;9.15;;;;;;;24.57;48.27;101767.16;21082659;28;20044;-58
2023/08/21 11:34:19;;;;;;;10.73;9.35;;;;;;;24.57;49.29;101745.59;21082279;28;20395;-57
2023/08/21 11:44:21;;;;;;;11.32;9.77;;;;;;;24.63;49.44;101752.00;21077841;28;20352;-57
2023/08/21 11:54:25;;;;;;;10.65;9.55;;;;;;;24.59;49.54;101756.50;21079883;28;20044;-56
2023/08/21 12:04:27;;;;;;;10.90;9.00;;;;;;;24.61;49.52;101762.66;21078248;28;20376;-57
2023/08/21 12:14:29;;;;;;;11.38;9.48;;;;;;;24.57;49.63;101767.16;21082581;28;20475;-58
2023/08/21 12:24:30;;;;;;;9.57;7.63;;;;;;;24.52;49.32;101773.59;21081278;28;20487;-56
2023/08/21 12:34:32;;;;;;;10.63;8.45;;;;;;;24.59;51.68;101773.28;21079491;28;20457;-57
2023/08/21 12:44:34;;;;;;;11.45;8.57;;;;;;;24.92;54.07;101762.50;21062432;28;20047;-58
2023/08/21 12:54:39;;;;;;;11.63;8.73;;;;;;;25.25;53.70;101763.75;21059801;28;20036;-59
2023/08/21 13:04:40;;;;;;;10.55;8.95;;;;;;;25.49;53.13;101758.22;21050328;28;20128;-57
2023/08/21 13:14:42;;;;;;;10.65;9.05;;;;;;;25.70;52.78;101759.72;21070376;28;20040;-58
2023/08/21 13:24:43;;;;;;;11.23;9.20;;;;;;;25.88;52.45;101749.75;21066180;28;20040;-58
2023/08/21 13:34:47;;;;;;;9.80;8.18;;;;;;;25.99;52.24;101758.94;21069853;28;20483;-57
2023/08/21 13:44:49;;;;;;;9.50;8.48;;;;;;;26.12;52.03;101758.22;21071983;28;20033;-58
2023/08/21 13:54:51;;;;;;;9.43;7.75;;;;;;;26.19;52.14;101763.47;21071380;28;20051;-58
2023/08/21 14:04:52;;;;;;;11.00;8.77;;;;;;;26.28;51.84;101759.72;21064737;28;20421;-59
2023/08/21 14:14:53;;;;;;;24.55;18.48;;;;;;;26.42;51.85;101739.34;21067325;28;20082;-59
2023/08/21 14:24:55;;;;;;;49.42;38.60;;;;;;;26.50;51.77;101739.56;21068249;28;20070;-57
2023/08/21 14:34:56;;;;;;;77.22;56.38;;;;;;;26.56;51.39;101726.28;21084098;28;20407;-59
2023/08/21 14:45:00;;;;;;;79.63;61.30;;;;;;;26.66;51.44;101728.13;21083733;28;20040;-58
2023/08/21 14:55:02;;;;;;;81.93;59.15;;;;;;;26.75;50.97;101735.56;21076653;28;20101;-60
2023/08/21 15:05:06;;;;;;;74.07;54.15;;;;;;;26.81;50.91;101728.78;21079775;28;20184;-54
2023/08/21 15:15:08;;;;;;;66.80;49.65;;;;;;;26.89;50.86;101720.78;21056429;28;20036;-58
2023/08/21 15:25:12;;;;;;;55.85;41.28;;;;;;;26.94;50.36;101709.47;21077512;28;20471;-59
2023/08/21 15:35:17;;;;;;;51.10;38.70;;;;;;;27.03;50.28;101707.66;21075255;28;20044;-59
2023/08/21 15:45:18;;;;;;;43.83;34.67;;;;;;;27.09;50.48;101695.25;21072347;28;20193;-59
2023/08/21 15:55:20;;;;;;;40.72;31.67;;;;;;;27.10;50.12;101680.06;21081372;28;20106;-58
2023/08/21 16:05:22;;;;;;;35.33;28.65;;;;;;;27.22;50.06;101683.25;21078732;28;20044;-58
2023/08/21 16:15:23;;;;;;;31.88;25.55;;;;;;;27.28;49.88;101682.00;21078052;28;20055;-58
2023/08/21 16:25:25;;;;;;;33.70;25.13;;;;;;;27.19;49.42;101669.78;21077955;28;20040;-58
2023/08/21 16:35:26;;;;;;;29.58;23.63;;;;;;;26.72;50.13;101668.81;21073980;28;20039;-57
2023/08/21 16:45:27;;;;;;;29.95;22.13;;;;;;;26.47;50.35;101649.53;21076212;28;20052;-57
2023/08/21 16:55:29;;;;;;;27.60;21.13;;;;;;;26.28;50.63;101633.47;21073820;28;20438;-56
2023/08/21 17:05:34;;;;;;;23.40;20.25;;;;;;;26.16;50.81;101621.88;21063175;28;20044;-57
2023/08/21 17:15:36;;;;;;;23.92;19.40;;;;;;;26.14;51.37;101624.13;21025131;28;20048;-58
2023/08/21 17:25:38;;;;;;;19.85;17.42;;;;;;;26.08;51.42;101608.50;21077564;28;20123;-57
2023/08/21 17:35:39;;;;;;;21.75;17.13;;;;;;;26.03;51.25;101591.75;21121128;28;20070;-60
2023/08/21 17:45:41;;;;;;;19.10;16.23;;;;;;;26.00;51.69;101578.31;21073348;28;20044;-57
2023/08/21 17:55:46;;;;;;;18.98;16.58;;;;;;;26.00;51.96;101567.91;21074616;28;20040;-55
2023/08/21 18:05:47;;;;;;;19.10;16.20;;;;;;;26.03;52.29;101567.31;21076587;28;20044;-57
2023/08/21 18:15:49;;;;;;;16.85;14.20;;;;;;;25.56;52.44;101475.66;21083125;28;20040;-55
2023/08/21 18:25:52;;;;;;;17.65;14.02;;;;;;;25.95;52.32;101553.97;21082388;28;20112;-56
2023/08/21 18:35:54;;;;;;;19.17;14.77;;;;;;;25.99;52.45;101551.41;21063705;28;20040;-57
2023/08/21 18:45:56;;;;;;;15.98;13.45;;;;;;;26.01;52.79;101529.50;21070901;28;20048;-57
2023/08/21 18:55:57;;;;;;;16.77;13.75;;;;;;;25.99;52.44;101535.41;21082714;28;20040;-57
2023/08/21 19:06:02;;;;;;;15.13;13.40;;;;;;;25.98;52.52;101525.34;21078360;28;20093;-56
2023/08/21 19:16:04;;;;;;;16.23;13.02;;;;;;;25.97;52.58;101520.00;21071957;28;20050;-55
2023/08/21 19:26:05;;;;;;;18.23;13.43;;;;;;;25.92;52.52;101500.44;21079185;28;20036;-56
2023/08/21 19:36:12;;;;;;;15.25;12.20;;;;;;;25.89;52.10;101498.25;21065613;28;20051;-59
2023/08/21 19:46:14;;;;;;;15.35;11.35;;;;;;;25.90;52.60;101499.94;21081904;28;20471;-58
2023/08/21 19:56:15;;;;;;;14.45;12.10;;;;;;;25.85;53.10;101501.66;21052847;28;20445;-57
2023/08/21 20:06:16;;;;;;;14.60;11.43;;;;;;;25.86;53.31;101491.28;21069834;28;20043;-61
2023/08/21 20:16:18;;;;;;;14.02;11.10;;;;;;;25.88;53.11;101503.03;21076034;28;20090;-57
2023/08/21 20:26:24;;;;;;;14.73;10.90;;;;;;;25.87;52.87;101506.97;21070032;28;20051;-60
2023/08/21 20:36:25;;;;;;;34.22;11.70;;;;;;;26.00;52.60;101494.19;21075355;28;20471;-59
2023/08/21 20:46:26;;;;;;;22.00;13.05;;;;;;;25.88;52.81;101485.38;21066806;28;20036;-60
2023/08/21 20:56:30;;;;;;;21.05;12.00;;;;;;;25.83;52.83;101487.09;21074913;28;20097;-59
2023/08/21 21:06:31;;;;;;;16.80;11.15;;;;;;;25.81;52.91;101500.59;21070740;28;20047;-59
2023/08/21 21:16:33;;;;;;;20.60;12.20;;;;;;;25.78;53.21;101481.56;21067297;28;20101;-59
2023/08/21 21:26:34;;;;;;;17.52;11.95;;;;;;;25.85;53.05;101484.84;21071940;28;20070;-61
2023/08/21 21:36:40;;;;;;;16.10;11.73;;;;;;;25.79;52.24;101471.19;21069713;28;20032;-59
2023/08/21 21:46:43;;;;;;;14.70;11.60;;;;;;;25.77;53.18;101488.31;21060201;28;20122;-60
2023/08/21 21:56:45;;;;;;;14.93;11.70;;;;;;;25.77;53.28;101467.88;21037370;28;20093;-61
2023/08/21 22:06:46;;;;;;;14.40;12.25;;;;;;;25.82;53.23;101464.97;21070480;28;20032;-58
2023/08/21 22:16:48;;;;;;;14.45;12.10;;;;;;;25.81;53.22;101469.75;21069367;28;20093;-63
2023/08/21 22:26:49;;;;;;;15.02;12.30;;;;;;;25.79;53.07;101474.81;21063550;28;20040;-60
2023/08/21 22:36:52;;;;;;;17.67;12.32;;;;;;;25.78;53.03;101472.31;21067619;28;20093;-62
2023/08/21 22:46:53;;;;;;;16.73;12.15;;;;;;;25.78;53.19;101481.56;21069916;28;20032;-61
2023/08/21 22:56:54;;;;;;;17.10;12.40;;;;;;;25.75;52.96;101475.69;21077953;28;20040;-62
2023/08/21 23:06:56;;;;;;;18.85;12.60;;;;;;;25.79;52.80;101482.41;21072448;28;20094;-61
2023/08/21 23:16:57;;;;;;;15.65;11.93;;;;;;;25.71;52.78;101481.09;21062914;28;20040;-62
2023/08/21 23:27:00;;;;;;;13.80;12.10;;;;;;;25.74;52.78;101493.66;21074126;28;20048;-59
2023/08/21 23:37:03;;;;;;;13.32;11.82;;;;;;;25.72;52.17;101498.75;21015237;28;20044;-60
2023/08/21 23:47:08;;;;;;;16.15;12.85;;;;;;;25.65;52.39;101499.09;21076236;28;20560;-63
2023/08/21 23:57:10;;;;;;;13.93;12.43;;;;;;;25.65;52.76;101493.47;21074214;28;20059;-61
